createdAt,value
2018-06-22T00:00:46.774Z,24.25
2018-06-22T00:01:46.717Z,24.25
2018-06-22T00:02:46.762Z,24.29
2018-06-22T00:03:46.896Z,24.31
2018-06-22T00:04:46.737Z,24.25
2018-06-22T00:05:46.890Z,24.29
2018-06-22T00:06:46.787Z,24.26
2018-06-22T00:07:46.778Z,24.14
2018-06-22T00:08:46.815Z,24.19
2018-06-22T00:09:46.750Z,24.21
2018-06-22T00:10:46.785Z,24.09
2018-06-22T00:11:46.766Z,24.1
2018-06-22T00:12:46.744Z,24.21
2018-06-22T00:13:47.498Z,24.16
2018-06-22T00:14:46.790Z,24.18
2018-06-22T00:15:46.809Z,24.09
2018-06-22T00:16:46.791Z,24.22
2018-06-22T00:17:46.778Z,24.09
2018-06-22T00:18:46.836Z,24.21
2018-06-22T00:19:46.783Z,24.18
2018-06-22T00:20:46.772Z,24.21
2018-06-22T00:21:46.796Z,24.09
2018-06-22T00:22:46.765Z,24.11
2018-06-22T00:23:46.846Z,24.09
2018-06-22T00:24:46.798Z,24.13
2018-06-22T00:25:46.805Z,24.13
2018-06-22T00:26:46.827Z,24.13
2018-06-22T00:27:46.808Z,24.11
2018-06-22T00:28:46.828Z,24.03
2018-06-22T00:29:46.775Z,24.11
2018-06-22T00:30:46.831Z,24.14
2018-06-22T00:31:46.767Z,24.13
2018-06-22T00:32:46.765Z,24.16
2018-06-22T00:33:46.799Z,24.06
2018-06-22T00:34:46.805Z,24.06
2018-06-22T00:35:46.812Z,24.04
2018-06-22T00:36:46.822Z,24.07
2018-06-22T00:37:46.852Z,24.13
2018-06-22T00:38:46.810Z,24.11
2018-06-22T00:39:46.811Z,24.06
2018-06-22T00:40:46.804Z,24.04
2018-06-22T00:41:46.809Z,24.04
2018-06-22T00:42:46.802Z,24.03
2018-06-22T00:43:46.818Z,24.06
2018-06-22T00:44:46.794Z,24.06
2018-06-22T00:45:46.787Z,24.03
2018-06-22T00:46:46.845Z,24.09
2018-06-22T00:47:46.822Z,24.04
2018-06-22T00:48:46.853Z,24.07
2018-06-22T00:49:46.827Z,24.06
2018-06-22T00:50:46.881Z,24.09
2018-06-22T00:51:46.819Z,24.1
2018-06-22T00:52:46.879Z,24.01
2018-06-22T00:53:46.916Z,24.1
2018-06-22T00:54:46.811Z,24
2018-06-22T00:55:46.848Z,24.04
2018-06-22T00:56:46.925Z,24.04
2018-06-22T00:57:46.881Z,24.14
2018-06-22T00:58:46.887Z,24.01
2018-06-22T00:59:46.847Z,24.06
2018-06-22T01:00:46.899Z,23.99
2018-06-22T01:01:46.911Z,24.1
2018-06-22T01:02:46.893Z,24.04
2018-06-22T01:03:46.948Z,24.09
2018-06-22T01:04:46.825Z,24.04
2018-06-22T01:05:46.862Z,23.99
2018-06-22T01:06:46.816Z,24.01
2018-06-22T01:07:46.850Z,23.99
2018-06-22T01:08:46.823Z,23.99
2018-06-22T01:09:46.862Z,24.04
2018-06-22T01:10:46.833Z,24.06
2018-06-22T01:11:46.818Z,24.01
2018-06-22T01:12:46.874Z,24.06
2018-06-22T01:13:46.916Z,23.99
2018-06-22T01:14:46.866Z,24.04
2018-06-22T01:15:46.875Z,24.1
2018-06-22T01:21:04.375Z,24.04
2018-06-22T01:21:15.814Z,23.99
2018-06-22T01:22:16.046Z,24.06
2018-06-22T01:23:15.842Z,24.06
2018-06-22T01:24:15.798Z,24.01
2018-06-22T01:25:15.811Z,24.06
2018-06-22T01:26:15.872Z,24.07
2018-06-22T01:27:15.854Z,24
2018-06-22T01:28:15.772Z,24.09
2018-06-22T01:29:15.862Z,23.99
2018-06-22T01:30:15.807Z,24.01
2018-06-22T01:31:15.890Z,24.01
2018-06-22T01:32:16.564Z,24.03
2018-06-22T01:33:15.828Z,24.01
2018-06-22T01:34:15.811Z,24.07
2018-06-22T01:35:15.792Z,24.01
2018-06-22T01:36:15.808Z,24.01
2018-06-22T01:37:15.805Z,24.07
2018-06-22T01:38:15.834Z,23.92
2018-06-22T01:39:15.847Z,24.04
2018-06-22T01:40:15.847Z,24.01
2018-06-22T01:41:15.856Z,24.03
2018-06-22T01:42:15.847Z,24.03
2018-06-22T01:43:15.842Z,24.04
2018-06-22T01:44:15.854Z,24
2018-06-22T01:45:15.830Z,23.99
2018-06-22T01:46:15.836Z,23.92
2018-06-22T01:47:15.817Z,24.01
2018-06-22T01:48:15.852Z,23.99
2018-06-22T01:49:15.830Z,24
2018-06-22T01:50:15.796Z,24.01
2018-06-22T01:51:15.872Z,24.01
2018-06-22T01:52:15.888Z,24.04
2018-06-22T01:53:15.882Z,23.96
2018-06-22T01:54:15.847Z,24.01
2018-06-22T01:55:15.844Z,24.04
2018-06-22T01:56:15.823Z,24.03
2018-06-22T01:57:15.860Z,24.04
2018-06-22T01:58:15.863Z,24.01
2018-06-22T01:59:15.845Z,23.94
2018-06-22T02:00:15.888Z,24.01
2018-06-22T02:01:15.860Z,24.03
2018-06-22T02:02:15.866Z,24.04
2018-06-22T02:03:15.856Z,24.03
2018-06-22T02:04:15.902Z,24.01
2018-06-22T02:05:15.841Z,23.92
2018-06-22T02:06:15.869Z,23.96
2018-06-22T02:07:15.956Z,23.96
2018-06-22T02:08:15.908Z,23.96
2018-06-22T02:09:15.886Z,24.03
2018-06-22T02:10:15.874Z,24.09
2018-06-22T02:11:15.904Z,24
2018-06-22T02:12:15.933Z,24
2018-06-22T02:13:15.935Z,24
2018-06-22T02:14:15.870Z,23.95
2018-06-22T02:15:15.927Z,24
2018-06-22T02:16:15.921Z,24.01
2018-06-22T02:17:15.938Z,23.94
2018-06-22T02:18:15.897Z,24
2018-06-22T02:19:15.878Z,23.99
2018-06-22T02:20:15.917Z,24.01
2018-06-22T02:21:15.897Z,23.94
2018-06-22T02:22:15.924Z,23.96
2018-06-22T02:23:15.905Z,23.95
2018-06-22T02:24:15.895Z,23.94
2018-06-22T02:25:15.950Z,23.95
2018-06-22T02:26:15.948Z,23.99
2018-06-22T02:27:15.931Z,23.89
2018-06-22T02:28:15.884Z,24
2018-06-22T02:29:15.915Z,23.94
2018-06-22T02:30:15.928Z,24
2018-06-22T02:31:15.914Z,23.94
2018-06-22T02:32:15.939Z,23.99
2018-06-22T02:33:15.901Z,23.95
2018-06-22T02:34:15.906Z,23.95
2018-06-22T02:35:15.926Z,23.94
2018-06-22T02:36:15.914Z,23.99
2018-06-22T02:37:15.943Z,23.94
2018-06-22T02:38:15.951Z,23.96
2018-06-22T02:39:15.933Z,23.86
2018-06-22T02:40:15.967Z,23.85
2018-06-22T02:41:15.921Z,23.86
2018-06-22T02:42:15.927Z,23.89
2018-06-22T02:43:15.935Z,23.92
2018-06-22T02:44:15.941Z,23.94
2018-06-22T02:45:15.946Z,23.88
2018-06-22T02:46:15.954Z,23.95
2018-06-22T02:47:16.005Z,23.91
2018-06-22T02:48:15.967Z,23.91
2018-06-22T02:49:16.003Z,23.94
2018-06-22T02:50:15.948Z,23.92
2018-06-22T02:51:15.937Z,23.85
2018-06-22T02:52:15.921Z,23.86
2018-06-22T02:53:15.976Z,23.88
2018-06-22T02:54:15.957Z,23.86
2018-06-22T02:55:15.981Z,23.91
2018-06-22T02:56:15.933Z,23.94
2018-06-22T02:57:15.950Z,23.91
2018-06-22T02:58:15.923Z,23.95
2018-06-22T02:59:16.009Z,23.92
2018-06-22T03:00:16.054Z,23.88
2018-06-22T03:01:16.005Z,23.95
2018-06-22T03:02:15.947Z,23.92
2018-06-22T03:03:15.969Z,24
2018-06-22T03:04:16.022Z,23.94
2018-06-22T03:05:16.025Z,23.95
2018-06-22T03:06:16.033Z,24.01
2018-06-22T03:07:15.994Z,23.94
2018-06-22T03:08:16.024Z,23.95
2018-06-22T03:09:16.019Z,23.89
2018-06-22T03:10:16.091Z,23.92
2018-06-22T03:11:15.988Z,23.94
2018-06-22T03:12:16.070Z,23.96
2018-06-22T03:13:16.044Z,23.91
2018-06-22T03:14:16.036Z,23.95
2018-06-22T03:15:16.040Z,23.89
2018-06-22T03:16:16.029Z,23.99
2018-06-22T03:17:15.993Z,23.96
2018-06-22T03:18:16.000Z,23.94
2018-06-22T03:19:16.033Z,23.95
2018-06-22T03:20:15.997Z,23.95
2018-06-22T03:21:16.046Z,23.95
2018-06-22T03:22:16.009Z,23.86
2018-06-22T03:23:16.017Z,23.95
2018-06-22T03:24:16.016Z,23.95
2018-06-22T03:25:15.999Z,23.91
2018-06-22T03:26:16.053Z,23.94
2018-06-22T03:27:16.100Z,23.86
2018-06-22T03:28:16.012Z,23.86
2018-06-22T03:29:16.046Z,23.91
2018-06-22T03:30:16.035Z,23.92
2018-06-22T03:31:16.009Z,23.99
2018-06-22T03:32:16.123Z,23.92
2018-06-22T03:33:15.981Z,23.94
2018-06-22T03:34:16.732Z,23.89
2018-06-22T03:35:16.073Z,23.95
2018-06-22T03:36:16.080Z,23.95
2018-06-22T03:37:15.995Z,23.95
2018-06-22T03:38:16.117Z,23.99
2018-06-22T03:39:16.068Z,23.96
2018-06-22T03:40:16.042Z,23.92
2018-06-22T03:41:16.027Z,23.95
2018-06-22T03:42:16.084Z,24.04
2018-06-22T03:43:16.117Z,23.96
2018-06-22T03:44:16.107Z,23.96
2018-06-22T03:45:16.106Z,23.88
2018-06-22T03:46:16.121Z,23.96
2018-06-22T03:48:34.888Z,23.89
2018-06-22T03:49:34.850Z,24.01
2018-06-22T03:50:34.932Z,23.94
2018-06-22T03:51:34.888Z,23.94
2018-06-22T03:52:34.863Z,23.92
2018-06-22T03:53:34.901Z,23.94
2018-06-22T03:54:34.872Z,23.88
2018-06-22T03:55:34.921Z,24
2018-06-22T03:56:34.960Z,23.95
2018-06-22T03:57:34.923Z,23.99
2018-06-22T03:58:35.875Z,23.92
2018-06-22T03:59:34.860Z,23.99
2018-06-22T04:00:51.017Z,23.94
2018-06-22T04:01:50.956Z,23.94
2018-06-22T04:02:50.987Z,23.92
2018-06-22T04:03:50.962Z,23.91
2018-06-22T04:04:50.972Z,23.94
2018-06-22T04:05:51.004Z,23.91
2018-06-22T04:06:51.001Z,23.85
2018-06-22T04:07:51.022Z,23.89
2018-06-22T04:08:50.940Z,23.96
2018-06-22T04:09:50.970Z,23.85
2018-06-22T04:10:51.015Z,23.85
2018-06-22T04:11:51.010Z,23.95
2018-06-22T04:12:50.998Z,23.86
2018-06-22T04:13:51.029Z,23.95
2018-06-22T04:14:51.083Z,23.88
2018-06-22T04:15:50.985Z,23.88
2018-06-22T04:16:51.002Z,23.88
2018-06-22T04:17:50.983Z,23.94
2018-06-22T04:18:51.036Z,23.92
2018-06-22T04:19:51.016Z,23.94
2018-06-22T04:20:51.050Z,23.85
2018-06-22T04:21:51.027Z,23.84
2018-06-22T04:22:50.991Z,23.89
2018-06-22T04:23:50.987Z,23.82
2018-06-22T04:24:51.002Z,23.86
2018-06-22T04:25:50.982Z,23.89
2018-06-22T04:26:50.967Z,23.88
2018-06-22T04:27:50.995Z,23.86
2018-06-22T04:28:51.042Z,23.89
2018-06-22T04:29:50.984Z,23.92
2018-06-22T04:30:51.036Z,23.86
2018-06-22T04:31:51.067Z,23.94
2018-06-22T04:32:51.122Z,23.88
2018-06-22T04:33:51.105Z,23.86
2018-06-22T04:34:51.141Z,23.94
2018-06-22T04:35:51.044Z,23.89
2018-06-22T04:36:51.027Z,23.91
2018-06-22T04:37:51.030Z,23.86
2018-06-22T04:38:51.091Z,23.95
2018-06-22T04:39:51.047Z,23.86
2018-06-22T04:40:51.817Z,23.88
2018-06-22T04:41:51.033Z,23.91
2018-06-22T04:42:51.085Z,23.95
2018-06-22T04:43:51.252Z,23.89
2018-06-22T04:44:51.026Z,23.95
2018-06-22T04:45:51.005Z,23.95
2018-06-22T04:46:51.111Z,23.94
2018-06-22T04:47:51.128Z,23.89
2018-06-22T04:48:51.117Z,23.85
2018-06-22T04:49:51.042Z,23.88
2018-06-22T04:50:51.079Z,23.86
2018-06-22T04:51:51.075Z,23.85
2018-06-22T04:52:51.075Z,23.76
2018-06-22T04:53:51.168Z,23.85
2018-06-22T04:54:51.066Z,23.91
2018-06-22T04:55:51.074Z,23.79
2018-06-22T04:56:51.088Z,23.85
2018-06-22T04:57:51.126Z,23.84
2018-06-22T04:58:51.083Z,23.76
2018-06-22T04:59:51.044Z,23.81
2018-06-22T05:00:51.028Z,23.85
2018-06-22T05:01:51.112Z,23.77
2018-06-22T05:02:51.071Z,23.81
2018-06-22T05:03:51.128Z,23.86
2018-06-22T05:04:51.171Z,23.76
2018-06-22T05:05:51.088Z,23.96
2018-06-22T05:06:51.100Z,23.88
2018-06-22T05:07:51.063Z,23.88
2018-06-22T05:08:51.131Z,23.86
2018-06-22T05:09:51.115Z,23.86
2018-06-22T05:10:51.643Z,23.94
2018-06-22T05:11:51.128Z,23.85
2018-06-22T05:12:51.271Z,23.85
2018-06-22T05:13:51.130Z,23.84
2018-06-22T05:14:51.855Z,23.89
2018-06-22T05:15:51.209Z,23.85
2018-06-22T05:16:51.107Z,23.92
2018-06-22T05:17:51.087Z,23.88
2018-06-22T05:18:51.095Z,23.96
2018-06-22T05:19:51.181Z,23.89
2018-06-22T05:20:51.055Z,23.92
2018-06-22T05:21:51.137Z,23.94
2018-06-22T05:22:51.318Z,23.91
2018-06-22T05:23:51.130Z,23.91
2018-06-22T05:24:51.257Z,23.84
2018-06-22T05:25:51.110Z,23.69
2018-06-22T05:26:51.121Z,23.63
2018-06-22T05:27:51.107Z,23.44
2018-06-22T05:28:51.151Z,23.39
2018-06-22T05:29:51.144Z,23.23
2018-06-22T05:30:51.189Z,23.4
2018-06-22T05:31:51.126Z,23.4
2018-06-22T05:32:51.149Z,23.4
2018-06-22T05:33:51.190Z,23.4
2018-06-22T05:34:51.200Z,23.45
2018-06-22T05:35:51.311Z,23.37
2018-06-22T05:36:51.137Z,23.51
2018-06-22T05:37:51.235Z,23.47
2018-06-22T05:38:51.192Z,23.45
2018-06-22T05:39:51.175Z,23.49
2018-06-22T05:40:51.185Z,23.47
2018-06-22T05:41:51.139Z,23.42
2018-06-22T05:42:51.155Z,23.39
2018-06-22T05:43:51.188Z,23.37
2018-06-22T05:44:51.165Z,23.39
2018-06-22T05:45:51.139Z,23.36
2018-06-22T05:46:51.207Z,23.23
2018-06-22T05:47:51.248Z,23.28
2018-06-22T05:48:51.210Z,23.21
2018-06-22T05:49:51.138Z,23.37
2018-06-22T05:50:51.367Z,23.36
2018-06-22T05:51:51.205Z,23.34
2018-06-22T05:52:51.245Z,23.26
2018-06-22T05:53:51.243Z,23.33
2018-06-22T05:54:51.172Z,23.37
2018-06-22T05:55:51.137Z,23.29
2018-06-22T05:56:51.268Z,23.33
2018-06-22T05:57:51.145Z,23.29
2018-06-22T05:58:51.151Z,23.29
2018-06-22T05:59:51.129Z,23.26
2018-06-22T06:00:51.157Z,23.29
2018-06-22T06:01:51.987Z,23.21
2018-06-22T06:02:51.177Z,23.29
2018-06-22T06:03:51.182Z,23.34
2018-06-22T06:04:51.258Z,23.23
2018-06-22T06:05:51.195Z,23.26
2018-06-22T06:06:51.216Z,23.21
2018-06-22T06:07:51.176Z,23.21
2018-06-22T06:08:51.212Z,23.25
2018-06-22T06:09:51.262Z,23.25
2018-06-22T06:10:51.244Z,23.23
2018-06-22T06:11:51.211Z,23.2
2018-06-22T06:12:51.181Z,23.18
2018-06-22T06:13:51.196Z,23.08
2018-06-22T06:14:51.177Z,23.21
2018-06-22T06:15:51.176Z,23.18
2018-06-22T06:16:51.223Z,23.1
2018-06-22T06:17:51.212Z,23.08
2018-06-22T06:18:51.196Z,23.13
2018-06-22T06:19:51.211Z,23.21
2018-06-22T06:20:51.239Z,23.13
2018-06-22T06:21:51.240Z,23.11
2018-06-22T06:22:51.242Z,23.14
2018-06-22T06:23:51.250Z,23.07
2018-06-22T06:24:51.260Z,23.16
2018-06-22T06:25:51.294Z,23.14
2018-06-22T06:26:51.201Z,23.1
2018-06-22T06:27:51.273Z,23.2
2018-06-22T06:28:51.219Z,23.02
2018-06-22T06:29:51.307Z,23.08
2018-06-22T06:30:51.247Z,23.14
2018-06-22T06:31:51.242Z,23.14
2018-06-22T06:32:51.270Z,23.07
2018-06-22T06:33:51.249Z,23.1
2018-06-22T06:34:51.248Z,23.07
2018-06-22T06:35:51.214Z,23.01
2018-06-22T06:36:51.250Z,23.01
2018-06-22T06:37:51.249Z,23.04
2018-06-22T06:38:51.337Z,23.13
2018-06-22T06:39:51.254Z,23.11
2018-06-22T06:40:51.224Z,23.07
2018-06-22T06:41:51.383Z,23.04
2018-06-22T06:42:51.225Z,23.02
2018-06-22T06:43:51.317Z,23.01
2018-06-22T06:44:51.291Z,23.02
2018-06-22T06:45:51.834Z,23.06
2018-06-22T06:46:51.259Z,22.96
2018-06-22T06:47:51.239Z,23.02
2018-06-22T06:48:51.238Z,22.96
2018-06-22T06:49:51.305Z,23.06
2018-06-22T06:50:52.022Z,22.99
2018-06-22T06:51:51.292Z,22.95
2018-06-22T06:52:51.324Z,22.98
2018-06-22T06:53:51.254Z,22.96
2018-06-22T06:54:51.304Z,23.02
2018-06-22T06:55:51.312Z,22.98
2018-06-22T06:56:51.363Z,22.83
2018-06-22T06:57:51.946Z,22.95
2018-06-22T06:58:51.467Z,22.96
2018-06-22T06:59:51.315Z,23.02
2018-06-22T07:00:51.343Z,23.01
2018-06-22T07:01:51.305Z,23.07
2018-06-22T07:02:51.262Z,22.91
2018-06-22T07:03:51.285Z,22.96
2018-06-22T07:04:51.300Z,22.96
2018-06-22T07:05:51.259Z,22.89
2018-06-22T07:06:51.318Z,22.88
2018-06-22T07:07:51.303Z,22.95
2018-06-22T07:08:51.345Z,22.93
2018-06-22T07:09:51.247Z,22.83
2018-06-22T07:10:51.337Z,22.86
2018-06-22T07:11:51.327Z,22.89
2018-06-22T07:12:51.293Z,22.91
2018-06-22T07:13:51.312Z,22.93
2018-06-22T07:14:51.310Z,22.88
2018-06-22T07:15:51.390Z,22.89
2018-06-22T07:16:51.354Z,22.81
2018-06-22T07:17:51.409Z,22.89
2018-06-22T07:18:51.343Z,22.89
2018-06-22T07:19:51.852Z,22.88
2018-06-22T07:20:51.424Z,22.89
2018-06-22T07:21:51.303Z,22.88
2018-06-22T07:22:51.344Z,22.83
2018-06-22T07:27:19.469Z,22.76
2018-06-22T07:28:19.267Z,22.77
2018-06-22T07:29:19.211Z,22.77
2018-06-22T07:30:19.203Z,22.63
2018-06-22T07:31:19.262Z,22.63
2018-06-22T07:32:19.216Z,22.7
2018-06-22T07:33:19.213Z,22.73
2018-06-22T07:34:19.244Z,22.74
2018-06-22T07:35:19.621Z,22.74
2018-06-22T07:36:19.227Z,22.78
2018-06-22T07:37:19.843Z,22.84
2018-06-22T07:38:19.233Z,22.77
2018-06-22T07:39:19.223Z,22.76
2018-06-22T07:40:19.229Z,22.78
2018-06-22T07:41:19.238Z,22.83
2018-06-22T07:42:19.236Z,22.77
2018-06-22T07:43:19.274Z,22.77
2018-06-22T07:44:19.271Z,22.74
2018-06-22T07:45:19.287Z,22.78
2018-06-22T07:46:19.270Z,22.78
2018-06-22T07:47:19.239Z,22.74
2018-06-22T07:48:19.252Z,22.83
2018-06-22T07:49:19.249Z,22.74
2018-06-22T07:50:19.314Z,22.77
2018-06-22T07:51:19.287Z,22.78
2018-06-22T07:52:19.232Z,22.78
2018-06-22T07:53:19.231Z,22.73
2018-06-22T07:54:19.286Z,22.73
2018-06-22T07:55:19.341Z,22.81
2018-06-22T07:56:19.272Z,22.67
2018-06-22T07:57:19.343Z,22.67
2018-06-22T07:58:19.286Z,22.78
2018-06-22T07:59:19.249Z,22.74
2018-06-22T08:00:19.325Z,22.68
2018-06-22T08:01:19.284Z,22.71
2018-06-22T08:02:19.447Z,22.74
2018-06-22T08:03:19.293Z,22.76
2018-06-22T08:04:19.324Z,22.76
2018-06-22T08:05:19.258Z,22.74
2018-06-22T08:06:19.400Z,22.74
2018-06-22T08:07:19.318Z,22.71
2018-06-22T08:08:19.324Z,22.68
2018-06-22T08:09:19.330Z,22.73
2018-06-22T08:10:19.305Z,22.68
2018-06-22T08:11:19.266Z,22.65
2018-06-22T08:12:19.285Z,22.74
2018-06-22T08:13:19.317Z,22.68
2018-06-22T08:14:19.285Z,22.63
2018-06-22T08:15:19.307Z,22.77
2018-06-22T08:16:19.304Z,22.73
2018-06-22T08:17:19.311Z,22.67
2018-06-22T08:18:19.263Z,22.71
2018-06-22T08:19:19.268Z,22.61
2018-06-22T08:20:19.364Z,22.65
2018-06-22T08:21:19.359Z,22.59
2018-06-22T08:22:19.343Z,22.59
2018-06-22T08:23:19.344Z,22.59
2018-06-22T08:24:19.379Z,22.61
2018-06-22T08:25:19.371Z,22.67
2018-06-22T08:26:19.344Z,22.63
2018-06-22T08:27:19.349Z,22.61
2018-06-22T08:28:19.382Z,22.65
2018-06-22T08:29:19.389Z,22.65
2018-06-22T08:30:19.354Z,22.68
2018-06-22T08:31:19.396Z,22.65
2018-06-22T08:32:19.329Z,22.61
2018-06-22T08:33:19.385Z,22.68
2018-06-22T08:34:19.352Z,22.67
2018-06-22T08:35:19.383Z,22.56
2018-06-22T08:36:19.386Z,22.62
2018-06-22T08:37:19.437Z,22.7
2018-06-22T08:38:19.400Z,22.62
2018-06-22T08:39:19.348Z,22.55
2018-06-22T08:40:19.360Z,22.62
2018-06-22T08:41:19.436Z,22.59
2018-06-22T08:46:37.425Z,22.61
2018-06-22T08:46:48.964Z,22.65
2018-06-22T08:47:48.994Z,22.63
2018-06-22T08:48:48.988Z,22.67
2018-06-22T08:49:48.939Z,22.62
2018-06-22T08:50:49.019Z,22.62
2018-06-22T08:51:49.096Z,22.59
2018-06-22T08:52:48.958Z,22.59
2018-06-22T08:53:49.084Z,22.62
2018-06-22T08:54:48.983Z,22.58
2018-06-22T08:55:49.125Z,22.61
2018-06-22T08:56:48.952Z,22.59
2018-06-22T08:57:49.004Z,22.58
2018-06-22T08:58:48.942Z,22.53
2018-06-22T08:59:48.942Z,22.67
2018-06-22T09:00:48.951Z,22.63
2018-06-22T09:01:48.956Z,22.58
2018-06-22T09:02:48.985Z,22.56
2018-06-22T09:03:48.994Z,22.63
2018-06-22T09:04:48.993Z,22.65
2018-06-22T09:05:48.981Z,22.67
2018-06-22T09:06:48.992Z,22.52
2018-06-22T09:07:49.037Z,22.62
2018-06-22T09:08:49.026Z,22.56
2018-06-22T09:09:48.983Z,22.49
2018-06-22T09:10:49.037Z,22.62
2018-06-22T09:11:49.034Z,22.62
2018-06-22T09:12:49.013Z,22.56
2018-06-22T09:13:48.957Z,22.65
2018-06-22T09:14:49.014Z,22.58
2018-06-22T09:15:49.028Z,22.58
2018-06-22T09:16:48.989Z,22.58
2018-06-22T09:17:49.403Z,22.49
2018-06-22T09:18:48.992Z,22.51
2018-06-22T09:19:49.088Z,22.51
2018-06-22T09:20:48.962Z,22.52
2018-06-22T09:21:48.992Z,22.59
2018-06-22T09:22:49.005Z,22.51
2018-06-22T09:23:48.999Z,22.55
2018-06-22T09:24:49.009Z,22.55
2018-06-22T09:25:48.986Z,22.52
2018-06-22T09:26:48.989Z,22.47
2018-06-22T09:27:49.000Z,22.51
2018-06-22T09:28:49.034Z,22.43
2018-06-22T09:29:48.994Z,22.49
2018-06-22T09:30:48.968Z,22.58
2018-06-22T09:31:48.976Z,22.49
2018-06-22T09:32:49.032Z,22.44
2018-06-22T09:33:48.999Z,22.49
2018-06-22T09:34:49.049Z,22.49
2018-06-22T09:35:49.052Z,22.41
2018-06-22T09:36:49.211Z,22.47
2018-06-22T09:37:48.985Z,22.46
2018-06-22T09:38:49.046Z,22.37
2018-06-22T09:39:49.081Z,22.38
2018-06-22T09:40:49.033Z,22.37
2018-06-22T09:41:49.043Z,22.43
2018-06-22T09:42:49.220Z,22.41
2018-06-22T09:43:49.030Z,22.43
2018-06-22T09:44:49.032Z,22.4
2018-06-22T09:45:49.071Z,22.36
2018-06-22T09:46:49.137Z,22.36
2018-06-22T09:47:49.083Z,22.3
2018-06-22T09:48:49.038Z,22.28
2018-06-22T09:49:49.112Z,22.33
2018-06-22T09:50:49.058Z,22.31
2018-06-22T09:51:49.102Z,22.4
2018-06-22T09:52:49.111Z,22.34
2018-06-22T09:53:49.075Z,22.33
2018-06-22T09:54:49.055Z,22.34
2018-06-22T09:55:49.087Z,22.4
2018-06-22T09:56:49.090Z,22.37
2018-06-22T09:57:49.233Z,22.4
2018-06-22T09:58:49.047Z,22.37
2018-06-22T09:59:49.060Z,22.4
2018-06-22T10:00:49.107Z,22.4
2018-06-22T10:01:49.089Z,22.28
2018-06-22T10:02:49.049Z,22.36
2018-06-22T10:03:49.079Z,22.33
2018-06-22T10:04:49.282Z,22.4
2018-06-22T10:05:49.133Z,22.37
2018-06-22T10:06:49.073Z,22.41
2018-06-22T10:07:49.271Z,22.38
2018-06-22T10:08:49.095Z,22.37
2018-06-22T10:09:49.082Z,22.3
2018-06-22T10:10:49.084Z,22.33
2018-06-22T10:11:49.156Z,22.38
2018-06-22T10:12:49.145Z,22.37
2018-06-22T10:13:49.148Z,22.4
2018-06-22T10:14:49.827Z,22.34
2018-06-22T10:15:49.112Z,22.41
2018-06-22T10:16:49.761Z,22.31
2018-06-22T10:17:49.127Z,22.47
2018-06-22T10:18:49.067Z,22.47
2018-06-22T10:19:49.146Z,22.38
2018-06-22T10:20:49.117Z,22.36
2018-06-22T10:21:49.097Z,22.44
2018-06-22T10:22:49.543Z,22.36
2018-06-22T10:23:49.095Z,22.33
2018-06-22T10:24:49.069Z,22.38
2018-06-22T10:25:49.093Z,22.38
2018-06-22T10:26:49.127Z,22.34
2018-06-22T10:27:49.107Z,22.38
2018-06-22T10:28:49.113Z,22.38
2018-06-22T10:29:49.089Z,22.36
2018-06-22T10:30:49.131Z,22.36
2018-06-22T10:31:49.133Z,22.3
2018-06-22T10:32:49.104Z,22.36
2018-06-22T10:33:49.119Z,22.38
2018-06-22T10:34:49.164Z,22.36
2018-06-22T10:35:49.163Z,22.37
2018-06-22T10:36:49.167Z,22.34
2018-06-22T10:37:49.155Z,22.34
2018-06-22T10:38:49.132Z,22.33
2018-06-22T10:39:49.149Z,22.34
2018-06-22T10:40:49.138Z,22.3
2018-06-22T10:41:49.171Z,22.31
2018-06-22T10:42:49.166Z,22.36
2018-06-22T10:43:49.107Z,22.41
2018-06-22T10:44:49.088Z,22.36
2018-06-22T10:45:49.205Z,22.41
2018-06-22T10:46:49.233Z,22.38
2018-06-22T10:47:49.107Z,22.37
2018-06-22T10:48:49.142Z,22.34
2018-06-22T10:49:49.152Z,22.4
2018-06-22T10:50:49.155Z,22.4
2018-06-22T10:51:49.117Z,22.37
2018-06-22T10:52:49.256Z,22.33
2018-06-22T10:53:49.174Z,22.34
2018-06-22T10:54:49.126Z,22.4
2018-06-22T10:55:49.144Z,22.33
2018-06-22T10:56:49.169Z,22.28
2018-06-22T10:57:49.166Z,22.28
2018-06-22T10:58:49.209Z,22.38
2018-06-22T10:59:49.309Z,22.21
2018-06-22T11:00:49.175Z,22.33
2018-06-22T11:01:49.155Z,22.33
2018-06-22T11:02:49.135Z,22.33
2018-06-22T11:03:49.166Z,22.33
2018-06-22T11:04:49.176Z,22.26
2018-06-22T11:05:49.292Z,22.33
2018-06-22T11:06:49.163Z,22.36
2018-06-22T11:07:49.220Z,22.3
2018-06-22T11:08:49.197Z,22.31
2018-06-22T11:09:49.187Z,22.26
2018-06-22T11:10:49.155Z,22.28
2018-06-22T11:11:49.167Z,22.26
2018-06-22T11:12:49.228Z,22.23
2018-06-22T11:13:49.234Z,22.3
2018-06-22T11:14:49.233Z,22.33
2018-06-22T11:15:49.168Z,22.28
2018-06-22T11:16:49.268Z,22.3
2018-06-22T11:17:49.263Z,22.34
2018-06-22T11:18:51.054Z,22.23
2018-06-22T11:19:49.271Z,22.28
2018-06-22T11:20:49.199Z,22.33
2018-06-22T11:21:49.278Z,22.28
2018-06-22T11:22:49.165Z,22.33
2018-06-22T11:23:49.249Z,22.37
2018-06-22T11:24:49.260Z,22.3
2018-06-22T11:25:49.212Z,22.34
2018-06-22T11:26:49.233Z,22.28
2018-06-22T11:27:49.195Z,22.28
2018-06-22T11:28:49.197Z,22.34
2018-06-22T11:29:49.208Z,22.33
2018-06-22T11:30:49.347Z,22.33
2018-06-22T11:31:49.240Z,22.28
2018-06-22T11:32:49.223Z,22.33
2018-06-22T11:33:49.263Z,22.52
2018-06-22T11:34:49.245Z,22.38
2018-06-22T11:35:49.309Z,22.22
2018-06-22T11:36:49.225Z,22.37
2018-06-22T11:37:49.223Z,22.26
2018-06-22T11:38:49.262Z,22.33
2018-06-22T11:39:49.286Z,22.26
2018-06-22T11:40:49.222Z,22.28
2018-06-22T11:41:49.338Z,22.31
2018-06-22T11:42:49.271Z,22.31
2018-06-22T11:43:49.273Z,22.26
2018-06-22T11:44:49.203Z,22.23
2018-06-22T11:45:49.243Z,22.36
2018-06-22T11:46:49.266Z,22.28
2018-06-22T11:47:49.275Z,22.33
2018-06-22T11:48:49.282Z,22.23
2018-06-22T11:49:49.208Z,22.34
2018-06-22T11:50:49.321Z,22.36
2018-06-22T11:51:49.253Z,22.33
2018-06-22T11:52:49.301Z,22.4
2018-06-22T11:53:49.212Z,22.34
2018-06-22T11:54:49.290Z,22.38
2018-06-22T11:55:49.273Z,22.36
2018-06-22T11:56:49.286Z,22.4
2018-06-22T11:57:49.232Z,22.37
2018-06-22T11:58:49.237Z,22.44
2018-06-22T11:59:49.243Z,22.46
2018-06-22T12:00:50.155Z,22.33
2018-06-22T12:01:49.548Z,22.43
2018-06-22T12:02:49.349Z,22.44
2018-06-22T12:03:49.357Z,22.4
2018-06-22T12:04:49.519Z,22.49
2018-06-22T12:05:49.316Z,22.41
2018-06-22T12:06:49.329Z,22.49
2018-06-22T12:07:49.299Z,22.46
2018-06-22T12:08:49.308Z,22.47
2018-06-22T12:09:49.349Z,22.37
2018-06-22T12:10:49.277Z,22.46
2018-06-22T12:11:49.456Z,22.38
2018-06-22T12:12:49.341Z,22.44
2018-06-22T12:13:49.351Z,22.47
2018-06-22T12:14:49.331Z,22.51
2018-06-22T12:15:49.309Z,22.46
2018-06-22T12:16:49.306Z,22.46
2018-06-22T12:17:49.313Z,22.51
2018-06-22T12:19:24.240Z,22.38
2018-06-22T12:19:49.274Z,22.47
2018-06-22T12:20:49.321Z,22.46
2018-06-22T12:21:49.388Z,22.38
2018-06-22T12:22:49.271Z,22.47
2018-06-22T12:23:49.323Z,22.44
2018-06-22T12:24:49.440Z,22.49
2018-06-22T12:25:49.284Z,22.34
2018-06-22T12:26:50.298Z,22.36
2018-06-22T12:27:49.329Z,22.37
2018-06-22T12:28:49.619Z,22.38
2018-06-22T12:29:49.930Z,22.37
2018-06-22T12:30:49.580Z,22.46
2018-06-22T12:31:49.551Z,22.4
2018-06-22T12:32:49.288Z,22.38
2018-06-22T12:33:49.286Z,22.41
2018-06-22T12:34:49.348Z,22.36
2018-06-22T12:35:49.333Z,22.49
2018-06-22T12:36:50.059Z,22.44
2018-06-22T12:37:49.393Z,22.4
2018-06-22T12:38:49.435Z,22.38
2018-06-22T12:39:49.505Z,22.51
2018-06-22T12:40:49.364Z,22.4
2018-06-22T12:41:49.345Z,22.52
2018-06-22T12:42:49.455Z,22.43
2018-06-22T12:43:49.439Z,22.49
2018-06-22T12:44:49.468Z,22.46
2018-06-22T12:45:49.638Z,22.51
2018-06-22T12:46:49.495Z,22.46
2018-06-22T12:47:49.373Z,22.49
2018-06-22T12:48:49.478Z,22.55
2018-06-22T12:49:49.639Z,22.47
2018-06-22T12:50:49.482Z,22.51
2018-06-22T12:51:49.362Z,22.44
2018-06-22T12:52:49.421Z,22.56
2018-06-22T12:53:49.425Z,22.47
2018-06-22T12:54:49.359Z,22.55
2018-06-22T12:55:49.493Z,22.63
2018-06-22T12:56:49.501Z,22.47
2018-06-22T12:57:57.177Z,22.56
2018-06-22T12:58:49.770Z,22.46
2018-06-22T12:59:49.637Z,22.49
2018-06-22T13:00:49.402Z,22.52
2018-06-22T13:01:49.434Z,22.47
2018-06-22T13:02:49.536Z,22.51
2018-06-22T13:03:49.536Z,22.51
2018-06-22T13:04:49.514Z,22.51
2018-06-22T13:05:49.518Z,22.51
2018-06-22T13:06:49.494Z,22.59
2018-06-22T13:07:49.811Z,22.49